createdAt,value
2018-11-29T00:00:06.730Z,67.76
2018-11-29T00:02:40.580Z,67.88
2018-11-29T00:05:17.204Z,67.70
2018-11-29T00:10:33.910Z,67.73
2018-11-29T00:13:08.103Z,67.81
2018-11-29T00:15:41.965Z,67.46
2018-11-29T00:20:56.737Z,67.61
2018-11-29T00:26:16.470Z,67.41
2018-11-29T00:28:50.336Z,67.11
2018-11-29T00:31:24.168Z,67.36
2018-11-29T00:33:58.752Z,67.78
2018-11-29T00:36:32.620Z,68.20
2018-11-29T00:39:07.789Z,68.44
2018-11-29T00:41:41.628Z,68.44
2018-11-29T00:44:15.417Z,68.41
2018-11-29T00:46:49.256Z,68.62
2018-11-29T00:49:23.776Z,68.68
2018-11-29T00:51:58.629Z,68.65
2018-11-29T00:54:32.460Z,68.25
2018-11-29T00:57:06.538Z,68.32
2018-11-29T00:59:40.306Z,68.19
2018-11-29T01:02:14.076Z,68.13
2018-11-29T01:04:47.908Z,67.97
2018-11-29T01:07:21.730Z,68.10
2018-11-29T01:09:55.509Z,68.24
2018-11-29T01:12:29.268Z,67.83
2018-11-29T01:15:03.822Z,67.67
2018-11-29T01:17:37.609Z,67.84
2018-11-29T01:20:16.111Z,67.86
2018-11-29T01:22:50.321Z,67.83
2018-11-29T01:25:25.197Z,67.96
2018-11-29T01:27:59.018Z,67.87
2018-11-29T01:30:32.833Z,67.84
2018-11-29T01:33:06.613Z,67.84
2018-11-29T01:35:40.438Z,67.75
2018-11-29T01:38:14.273Z,67.55
2018-11-29T01:43:29.494Z,68.23
2018-11-29T01:46:03.373Z,68.29
2018-11-29T01:48:37.223Z,68.27
2018-11-29T01:51:11.291Z,68.13
2018-11-29T01:53:45.173Z,67.89
2018-11-29T01:56:18.937Z,67.94
2018-11-29T01:58:53.487Z,68.02
2018-11-29T02:01:27.249Z,68.07
2018-11-29T02:04:01.806Z,67.54
2018-11-29T02:06:35.589Z,67.91
2018-11-29T02:09:11.181Z,68.01
2018-11-29T02:11:45.000Z,68.11
2018-11-29T02:14:18.753Z,68.28
2018-11-29T02:16:52.889Z,68.04
2018-11-29T02:19:26.716Z,68.30
2018-11-29T02:24:47.217Z,68.05
2018-11-29T02:27:21.059Z,68.11
2018-11-29T02:29:54.879Z,68.39
2018-11-29T02:32:28.700Z,68.36
2018-11-29T02:35:03.300Z,68.37
2018-11-29T02:37:37.093Z,68.18
2018-11-29T02:40:13.290Z,68.27
2018-11-29T02:42:48.745Z,68.36
2018-11-29T02:45:25.080Z,68.65
2018-11-29T02:47:58.845Z,68.25
2018-11-29T02:50:32.646Z,68.22
2018-11-29T02:55:48.246Z,68.45
2018-11-29T02:58:22.064Z,68.46
2018-11-29T03:00:55.917Z,68.43
2018-11-29T03:06:11.881Z,68.65
2018-11-29T03:08:45.634Z,68.46
2018-11-29T03:11:19.492Z,68.42
2018-11-29T03:13:53.293Z,68.53
2018-11-29T03:16:27.412Z,68.45
2018-11-29T03:19:01.902Z,68.43
2018-11-29T03:24:17.942Z,68.58
2018-11-29T03:26:51.742Z,68.85
2018-11-29T03:29:25.577Z,69.11
2018-11-29T03:37:24.369Z,69.04
2018-11-29T03:39:58.135Z,68.63
2018-11-29T03:45:17.865Z,68.96
2018-11-29T03:47:51.628Z,68.78
2018-11-29T03:50:25.845Z,68.93
2018-11-29T03:55:41.064Z,68.54
2018-11-29T03:58:14.844Z,68.62
2018-11-29T04:00:48.700Z,68.81
2018-11-29T04:06:04.682Z,68.60
2018-11-29T04:08:39.517Z,68.76
2018-11-29T04:11:14.125Z,68.70
2018-11-29T04:16:30.393Z,68.80
2018-11-29T04:19:05.226Z,68.56
2018-11-29T04:21:39.074Z,68.20
2018-11-29T04:26:55.037Z,68.21
2018-11-29T04:29:29.003Z,68.59
2018-11-29T04:32:03.578Z,68.57
2018-11-29T04:37:19.565Z,68.61
2018-11-29T04:39:53.484Z,68.79
2018-11-29T04:42:27.387Z,69.05
2018-11-29T04:47:48.390Z,68.33
2018-11-29T04:50:23.012Z,68.62
2018-11-29T04:55:39.066Z,69.00
2018-11-29T04:58:12.948Z,68.84
2018-11-29T05:00:46.842Z,69.49
2018-11-29T05:06:02.818Z,69.94
2018-11-29T05:08:37.005Z,69.74
2018-11-29T05:11:10.844Z,69.95
2018-11-29T05:16:30.541Z,69.32
2018-11-29T05:19:04.468Z,69.51
2018-11-29T05:21:39.345Z,69.04
2018-11-29T05:26:55.378Z,69.28
2018-11-29T05:29:29.283Z,69.06
2018-11-29T05:32:03.898Z,68.94
2018-11-29T05:34:37.685Z,69.20
2018-11-29T05:37:11.479Z,69.64
2018-11-29T05:39:45.334Z,69.54
2018-11-29T05:42:19.167Z,69.51
2018-11-29T05:44:53.988Z,69.32
2018-11-29T05:47:27.825Z,69.08
2018-11-29T05:50:02.601Z,68.85
2018-11-29T05:55:18.110Z,68.39
2018-11-29T05:57:51.984Z,68.78
2018-11-29T06:00:25.882Z,68.85
2018-11-29T06:05:41.202Z,69.12
2018-11-29T06:08:15.364Z,68.96
2018-11-29T06:10:49.935Z,68.87
2018-11-29T06:16:05.474Z,68.39
2018-11-29T06:18:39.380Z,68.60
2018-11-29T06:21:13.205Z,68.64
2018-11-29T06:26:29.498Z,69.04
2018-11-29T06:29:03.377Z,68.74
2018-11-29T06:31:37.224Z,68.68
2018-11-29T06:36:52.821Z,68.57
2018-11-29T06:39:27.430Z,68.36
2018-11-29T06:42:01.283Z,68.69
2018-11-29T06:47:16.790Z,68.50
2018-11-29T06:49:50.662Z,68.40
2018-11-29T06:52:25.276Z,68.21
2018-11-29T06:57:40.517Z,68.45
2018-11-29T07:00:28.701Z,68.66
2018-11-29T07:03:02.574Z,68.60
2018-11-29T07:05:36.412Z,68.64
2018-11-29T07:08:10.512Z,68.54
2018-11-29T07:10:44.304Z,68.44
2018-11-29T07:13:18.139Z,68.27
2018-11-29T07:15:51.932Z,68.15
2018-11-29T07:18:25.763Z,68.19
2018-11-29T07:22:08.682Z,68.25
2018-11-29T07:27:23.918Z,68.59
2018-11-29T07:29:58.524Z,68.40
2018-11-29T07:35:18.537Z,68.38
2018-11-29T07:37:52.407Z,68.43
2018-11-29T07:40:26.572Z,68.26
2018-11-29T07:45:41.914Z,68.09
2018-11-29T07:48:15.740Z,67.68
2018-11-29T07:50:49.719Z,67.66
2018-11-29T07:56:09.561Z,67.59
2018-11-29T07:58:44.144Z,67.37
2018-11-29T08:01:17.964Z,67.25
2018-11-29T08:03:51.783Z,67.25
2018-11-29T08:06:25.635Z,67.26
2018-11-29T08:08:59.484Z,67.05
2018-11-29T08:11:34.145Z,67.30
2018-11-29T08:14:09.511Z,67.14
2018-11-29T08:16:43.325Z,66.58
2018-11-29T08:19:17.068Z,66.54
2018-11-29T08:21:50.886Z,66.33
2018-11-29T08:24:25.043Z,66.66
2018-11-29T08:29:40.342Z,66.24
2018-11-29T08:32:14.144Z,67.86
2018-11-29T08:34:47.917Z,68.01
2018-11-29T08:45:24.066Z,66.80
2018-11-29T08:47:57.959Z,66.86
2018-11-29T08:50:31.742Z,66.91
2018-11-29T08:53:05.749Z,66.94
2018-11-29T08:58:20.936Z,66.40
2018-11-29T09:00:54.757Z,66.31
2018-11-29T09:03:29.609Z,66.25
2018-11-29T09:06:03.418Z,66.02
2018-11-29T09:08:37.211Z,66.22
2018-11-29T09:11:11.025Z,66.24
2018-11-29T09:13:44.893Z,66.21
2018-11-29T09:16:18.654Z,66.08
2018-11-29T09:21:34.977Z,65.54
2018-11-29T09:26:50.705Z,65.51
2018-11-29T09:29:24.548Z,65.51
2018-11-29T09:31:59.381Z,65.25
2018-11-29T09:34:33.942Z,65.05
2018-11-29T09:39:57.695Z,64.48
2018-11-29T09:45:23.375Z,64.11
2018-11-29T09:47:58.308Z,63.81
2018-11-29T09:50:32.213Z,64.03
2018-11-29T09:55:45.549Z,64.73
2018-11-29T09:58:19.422Z,65.15
2018-11-29T10:00:54.017Z,65.11
2018-11-29T10:06:09.686Z,65.73
2018-11-29T10:08:43.556Z,65.51
2018-11-29T10:11:18.136Z,65.42
2018-11-29T10:16:34.127Z,64.79
2018-11-29T10:19:08.275Z,64.39
2018-11-29T10:21:42.450Z,64.23
2018-11-29T10:24:16.222Z,64.19
2018-11-29T10:29:40.377Z,64.22
2018-11-29T10:32:14.329Z,64.25
2018-11-29T10:34:48.191Z,63.98
2018-11-29T10:37:21.961Z,64.03
2018-11-29T10:39:56.522Z,63.85
2018-11-29T10:42:30.360Z,63.78
2018-11-29T10:45:04.205Z,63.87
2018-11-29T10:47:38.065Z,63.89
2018-11-29T10:50:16.143Z,64.00
2018-11-29T10:52:49.956Z,63.79
2018-11-29T10:55:24.043Z,63.77
2018-11-29T10:57:57.823Z,63.53
2018-11-29T11:00:35.144Z,63.05
2018-11-29T11:03:22.673Z,63.00
2018-11-29T11:05:56.524Z,62.97
2018-11-29T11:08:30.598Z,62.78
2018-11-29T11:11:07.951Z,62.45
2018-11-29T11:13:41.822Z,62.53
2018-11-29T11:16:15.585Z,62.32
2018-11-29T11:18:49.401Z,62.17
2018-11-29T11:21:23.205Z,62.28
2018-11-29T11:23:59.436Z,62.07
2018-11-29T11:26:31.638Z,62.44
2018-11-29T11:29:05.406Z,62.55
2018-11-29T11:31:39.240Z,62.17
2018-11-29T11:34:13.765Z,61.93
2018-11-29T11:36:47.566Z,62.72
2018-11-29T11:39:22.145Z,63.44
2018-11-29T11:41:55.992Z,63.61
2018-11-29T11:44:30.513Z,64.04
2018-11-29T11:47:05.076Z,64.18
2018-11-29T11:57:39.102Z,64.29
2018-11-29T12:00:30.824Z,65.12
2018-11-29T12:08:30.986Z,65.32
2018-11-29T12:11:05.607Z,65.22
2018-11-29T12:16:22.005Z,65.82
2018-11-29T12:19:02.098Z,65.77
2018-11-29T12:21:29.813Z,65.92
2018-11-29T12:37:32.761Z,65.70
2018-11-29T12:50:50.249Z,66.54
2018-11-29T12:56:05.885Z,68.21
2018-11-29T12:58:39.708Z,68.38
2018-11-29T13:01:13.521Z,68.46
2018-11-29T13:06:28.788Z,68.33
2018-11-29T13:09:06.072Z,68.02
2018-11-29T13:11:39.875Z,68.61
2018-11-29T13:16:55.153Z,68.92
2018-11-29T13:19:28.975Z,69.10
2018-11-29T13:22:02.805Z,69.23
2018-11-29T13:27:19.155Z,69.00
2018-11-29T13:29:53.710Z,69.48
2018-11-29T13:32:27.522Z,69.78
2018-11-29T13:35:01.289Z,69.76
2018-11-29T13:45:32.702Z,68.74
2018-11-29T13:48:08.882Z,68.39
2018-11-29T13:50:42.943Z,68.06
2018-11-29T13:55:58.133Z,67.78
2018-11-29T13:58:32.056Z,67.46
2018-11-29T14:01:06.636Z,67.35
2018-11-29T14:06:22.241Z,67.56
2018-11-29T14:08:56.762Z,67.65
2018-11-29T14:11:30.618Z,67.35
2018-11-29T14:16:46.669Z,66.24
2018-11-29T14:19:20.717Z,66.04
2018-11-29T14:21:55.193Z,66.32
2018-11-29T14:27:08.517Z,66.24
2018-11-29T14:29:42.375Z,66.19
2018-11-29T14:32:16.222Z,65.86
2018-11-29T14:37:30.325Z,65.74
2018-11-29T14:40:04.219Z,65.72
2018-11-29T14:45:26.670Z,65.82
2018-11-29T14:48:01.291Z,65.65
2018-11-29T14:50:43.700Z,65.52
2018-11-29T14:55:58.963Z,65.20
2018-11-29T14:58:32.916Z,64.96
2018-11-29T15:01:07.838Z,64.80
2018-11-29T15:06:23.115Z,64.50
2018-11-29T15:08:56.968Z,64.42
2018-11-29T15:11:30.836Z,64.25
2018-11-29T15:14:04.625Z,64.18
2018-11-29T15:19:19.949Z,63.86
2018-11-29T15:21:53.813Z,63.66
2018-11-29T15:27:09.149Z,63.56
2018-11-29T15:29:43.033Z,63.49
2018-11-29T15:32:18.100Z,63.65
2018-11-29T15:37:38.307Z,63.15
2018-11-29T15:40:19.789Z,63.15
2018-11-29T15:45:36.104Z,62.75
2018-11-29T15:48:09.927Z,62.77
2018-11-29T15:50:43.729Z,62.69
2018-11-29T15:55:59.750Z,62.52
2018-11-29T16:01:13.164Z,62.07
2018-11-29T16:09:10.264Z,61.78
2018-11-29T16:11:44.114Z,61.64
2018-11-29T16:16:59.493Z,61.39
2018-11-29T16:19:33.321Z,61.43
2018-11-29T16:22:07.837Z,61.27
2018-11-29T16:27:21.223Z,61.18
2018-11-29T16:29:55.061Z,61.27
2018-11-29T16:32:28.861Z,61.29
2018-11-29T16:40:23.775Z,61.29
2018-11-29T16:45:36.264Z,61.55
2018-11-29T16:48:10.140Z,61.45
2018-11-29T16:50:43.989Z,61.42
2018-11-29T16:58:37.869Z,61.38
2018-11-29T17:03:53.219Z,60.89
2018-11-29T17:06:27.060Z,60.87
2018-11-29T17:11:41.159Z,60.55
2018-11-29T17:16:56.478Z,60.24
2018-11-29T17:22:12.159Z,60.03
2018-11-29T17:27:28.969Z,60.01
2018-11-29T17:30:03.511Z,60.05
2018-11-29T17:35:22.457Z,59.68
2018-11-29T17:37:58.442Z,59.71
2018-11-29T17:40:32.261Z,59.52
2018-11-29T17:43:06.066Z,59.68
2018-11-29T17:45:40.222Z,59.43
2018-11-29T17:50:57.601Z,59.53
2018-11-29T17:53:31.421Z,59.37
2018-11-29T17:58:46.693Z,59.62
2018-11-29T18:01:20.818Z,59.63
2018-11-29T18:03:54.616Z,59.83
2018-11-29T18:06:28.658Z,59.78
2018-11-29T18:09:02.460Z,59.80
2018-11-29T18:11:36.289Z,59.81
2018-11-29T18:14:11.185Z,59.83
2018-11-29T18:16:44.964Z,59.96
2018-11-29T18:19:18.777Z,59.93
2018-11-29T18:21:52.794Z,59.99
2018-11-29T18:29:47.697Z,59.74
2018-11-29T18:32:21.908Z,59.97
2018-11-29T18:37:37.952Z,60.09
2018-11-29T18:40:24.361Z,60.28
2018-11-29T18:45:48.027Z,60.59
2018-11-29T18:48:21.921Z,60.71
2018-11-29T18:50:55.770Z,60.75
2018-11-29T18:56:11.001Z,61.19
2018-11-29T18:58:45.592Z,61.37
2018-11-29T19:01:19.449Z,61.53
2018-11-29T19:03:53.220Z,61.61
2018-11-29T19:06:27.053Z,61.76
2018-11-29T19:09:01.596Z,61.77
2018-11-29T19:14:17.149Z,61.55
2018-11-29T19:19:32.554Z,61.52
2018-11-29T19:22:06.432Z,61.40
2018-11-29T19:27:21.759Z,61.14
2018-11-29T19:29:55.732Z,60.84
2018-11-29T19:32:29.688Z,60.59
2018-11-29T19:35:04.521Z,60.47
2018-11-29T19:37:39.082Z,60.33
2018-11-29T19:40:17.436Z,60.33
2018-11-29T19:42:51.371Z,60.24
2018-11-29T19:45:25.892Z,60.13
2018-11-29T19:50:43.330Z,59.98
2018-11-29T19:56:08.684Z,59.65
2018-11-29T19:58:42.548Z,59.79
2018-11-29T20:01:16.553Z,59.84
2018-11-29T20:03:50.371Z,59.77
2018-11-29T20:09:10.121Z,59.76
2018-11-29T20:11:43.953Z,59.99
2018-11-29T20:17:13.630Z,59.94
2018-11-29T20:19:48.191Z,59.76
2018-11-29T20:22:22.050Z,59.59
2018-11-29T20:27:39.162Z,59.46
2018-11-29T20:30:17.782Z,59.33
2018-11-29T20:32:55.925Z,59.24
2018-11-29T20:35:29.730Z,59.22
2018-11-29T20:38:04.616Z,59.13
2018-11-29T20:40:41.440Z,58.94
2018-11-29T20:43:17.366Z,58.84
2018-11-29T20:45:55.805Z,58.89
2018-11-29T20:51:12.237Z,58.68
2018-11-29T20:53:46.151Z,58.71
2018-11-29T20:56:20.017Z,58.67
2018-11-29T21:01:36.061Z,58.50
2018-11-29T21:04:09.968Z,58.68
2018-11-29T21:06:43.857Z,58.69
2018-11-29T21:12:00.761Z,58.58
2018-11-29T21:14:34.702Z,58.52
2018-11-29T21:17:09.942Z,58.47
2018-11-29T21:19:43.439Z,58.52
2018-11-29T21:22:18.041Z,58.45
2018-11-29T21:24:52.196Z,58.30
2018-11-29T21:27:26.761Z,58.15
2018-11-29T21:30:00.579Z,58.31
2018-11-29T21:32:34.398Z,58.31
2018-11-29T21:35:08.652Z,58.33
2018-11-29T21:37:42.728Z,58.16
2018-11-29T21:40:25.071Z,58.09
2018-11-29T21:42:58.938Z,58.38
2018-11-29T21:48:14.194Z,58.63
2018-11-29T21:50:49.873Z,58.54
2018-11-29T21:56:05.453Z,58.54
2018-11-29T21:58:39.344Z,58.51
2018-11-29T22:01:13.484Z,58.78
2018-11-29T22:06:26.849Z,58.86
2018-11-29T22:09:00.765Z,58.70
2018-11-29T22:11:34.609Z,58.81
2018-11-29T22:16:49.861Z,58.49
2018-11-29T22:19:24.023Z,58.88
2018-11-29T22:24:40.914Z,58.85
2018-11-29T22:29:56.566Z,59.26
2018-11-29T22:32:30.687Z,59.04
2018-11-29T22:37:48.990Z,58.75
2018-11-29T22:40:22.840Z,58.85
2018-11-29T22:42:56.930Z,58.73
2018-11-29T22:48:12.929Z,58.54
2018-11-29T22:50:47.460Z,58.36
2018-11-29T22:53:21.265Z,58.13
2018-11-29T22:55:55.310Z,58.39
2018-11-29T22:58:29.137Z,58.25
2018-11-29T23:06:33.642Z,58.45
2018-11-29T23:09:11.244Z,58.24
2018-11-29T23:11:45.776Z,58.26
2018-11-29T23:14:19.891Z,58.47
2018-11-29T23:16:54.408Z,58.47
2018-11-29T23:19:28.253Z,58.58
2018-11-29T23:22:02.124Z,58.64
2018-11-29T23:24:36.951Z,58.69
2018-11-29T23:27:10.786Z,58.52
2018-11-29T23:29:44.617Z,58.52
2018-11-29T23:32:18.364Z,58.56
2018-11-29T23:34:52.980Z,58.46
2018-11-29T23:37:26.805Z,58.36
2018-11-29T23:40:01.311Z,58.20
2018-11-29T23:42:35.873Z,58.48
2018-11-29T23:45:12.028Z,58.31
2018-11-29T23:47:46.159Z,58.41
2018-11-29T23:50:20.834Z,58.51
2018-11-29T23:52:54.586Z,58.54
2018-11-29T23:55:28.377Z,58.66
2018-11-29T23:58:02.211Z,58.74
